Airfield :
LOGIN :

Register | Disclaimer

   EN    FR    IT 

 










Legend :    VFR   Marginal VFR   IFR   Intensive IFR   Very Intensive IFR
Visi :
Ceiling :
>= 8 km
>= 3000ft
5 to 8 km
1000 to 3000 ft
1500m to 5 km
500 to 1000 ft
800 to 1500m
200 to 500 ft
< 800m
< 200 ft
Symbols :   Thunderstorms  Fog  Heavy snow  Heavy precipitations  Wind > 20 kt
SIGMETs :     Misc.  Thunderstorms  Icing  Turbulence  Mountain Waves  Volcanic Ashes






- Airport Elevation : 124 ft
- IATA code : AVN


LFMV - Avignon Caumont

CURRENT METAR :
  • 162100Z AUTO 09001KT 6000 NSC 01/00 Q1010

EXPIRED METARs :
  • 162030Z AUTO 00000KT 3500 1200 R17/1800D BR NSC 02/01 Q1010
  • 162000Z AUTO 06001KT 5000 2200 BR NSC 02/01 Q1010 BECMG 1500 MIFG
  • 161930Z AUTO 10001KT 7000 NSC 03/02 Q1010 BECMG 1500 MIFG
  • 161900Z AUTO 00000KT 5000 BR NSC 03/02 Q1010 NOSIG
  • 161830Z AUTO 00000KT CAVOK 04/02 Q1010 NOSIG
  • 161800Z AUTO 07002KT CAVOK 04/02 Q1010 NOSIG

TAF AMD TAF LFMV
Valid from the 16 at 15:00 until the 17 at 15:00 UTC


161559Z 1615/1715 VRB02KT CAVOK
BECMG 1621/1623 1500 MIFG NSC
PROB40
TEMPO 1701/1706 0800 FG VV///
BECMG 1706/1708 32010KT 9999 NSW SCT013
BECMG 1709/1711 32020KT CAVOK
TEMPO 1711/1714 32020G30KT
BECMG 1714/1715 34010KT
ATIS : +33 4 90 84 32 84



MET'MAP, your aeronautical weather chart ! - Copyright ORBIFLY December 2007 - Disclaimer

ORBIFLY MET'MAP TEAM :

Programming & Development : Alexandra Zaïnal
Concept & Development : Baudouin d'Aumeries
Co-Development & Prog : Marc-Olivier Méhu
Technical & hardware support : Manuel Goepfert

Contact : metmap@orbifly.com




SOURCES & CREDITS :

   NOAA